Time;durP1;ratioP1;P1;durP2;ratioP2;P2;SDS_P1;SDS_P2;PMS_P1;PMS_P2;Temp;Humidity;BMP_temperature;BMP_pressure;BME280_temperature;BME280_humidity;BME280_pressure;Samples;Min_cycle;Max_cycle;Signal;HPM_P1;HPM_P2
2023/01/08 14:49:42;;;;;;;5.65;1.10;;;8.90;99.90;;;;;;5151521;27;20338;-74
2023/01/08 14:52:11;;;;;;;6.63;1.10;;;8.90;99.90;;;;;;5147526;27;20023;-87
2023/01/08 14:54:38;;;;;;;10.68;1.55;;;8.90;99.90;;;;;;5091593;28;20038;-74
2023/01/08 14:57:05;;;;;;;9.90;1.85;;;8.90;99.90;;;;;;5128014;27;20031;-86
2023/01/08 14:59:36;;;;;;;2.72;1.27;;;8.80;99.90;;;;;;5124760;28;20069;-85
2023/01/08 15:02:06;;;;;;;5.10;1.02;;;8.80;99.90;;;;;;5113664;28;20036;-75
2023/01/08 15:04:32;;;;;;;3.58;1.20;;;8.70;99.90;;;;;;5105236;28;20035;-75
2023/01/08 15:07:15;;;;;;;5.18;1.35;;;8.70;99.90;;;;;;5105230;27;20031;-74
2023/01/08 15:09:41;;;;;;;3.60;1.40;;;8.60;99.90;;;;;;5107734;28;20027;-75
2023/01/08 15:12:23;;;;;;;3.80;1.30;;;8.50;99.90;;;;;;5130540;28;20406;-82
2023/01/08 15:14:50;;;;;;;5.90;0.95;;;8.50;99.90;;;;;;5129802;28;20031;-77
2023/01/08 15:17:20;;;;;;;3.63;1.30;;;8.40;99.90;;;;;;5126952;27;20433;-78
2023/01/08 15:19:54;;;;;;;4.97;1.92;;;8.30;99.90;;;;;;5130852;28;20031;-75
2023/01/08 15:22:29;;;;;;;2.80;0.68;;;8.30;99.90;;;;;;5124178;27;20083;-74
2023/01/08 15:25:05;;;;;;;2.28;1.00;;;8.20;99.90;;;;;;5130165;28;20028;-74
2023/01/08 15:27:36;;;;;;;;;;;8.10;99.90;;;;;;5121011;28;20713;-83
2023/01/08 15:30:04;;;;;;;2.92;1.00;;;8.10;99.90;;;;;;5122874;28;19982;-75
2023/01/08 15:32:35;;;;;;;7.25;1.25;;;8.00;99.90;;;;;;5127228;27;20028;-74
2023/01/08 15:35:14;;;;;;;4.25;1.20;;;7.90;99.90;;;;;;5124574;28;20043;-75
2023/01/08 15:37:41;;;;;;;5.82;1.52;;;7.90;99.90;;;;;;5128084;28;20102;-75
2023/01/08 15:40:08;;;;;;;;;;;7.80;99.90;;;;;;5110979;28;20049;-82
2023/01/08 15:45:22;;;;;;;8.40;1.70;;;7.70;99.90;;;;;;5128641;28;20084;-75
2023/01/08 15:47:48;;;;;;;6.07;1.08;;;7.70;99.90;;;;;;5101266;28;20044;-74
2023/01/08 15:50:15;;;;;;;4.28;1.35;;;7.60;99.90;;;;;;5098826;28;20368;-75
2023/01/08 15:52:42;;;;;;;11.25;1.40;;;7.60;99.90;;;;;;5094793;28;20024;-75
2023/01/08 15:55:23;;;;;;;7.85;1.23;;;7.50;99.90;;;;;;5102783;28;20091;-84
2023/01/08 15:57:50;;;;;;;20.05;2.38;;;7.50;99.90;;;;;;5110018;28;20031;-74
2023/01/08 16:00:18;;;;;;;18.38;1.73;;;7.50;99.90;;;;;;5096322;28;20028;-74
2023/01/08 16:02:46;;;;;;;57.42;3.80;;;7.50;99.90;;;;;;5094924;28;20090;-74
2023/01/08 16:05:13;;;;;;;6.55;1.25;;;7.40;99.90;;;;;;5091088;28;20036;-75
2023/01/08 16:07:39;;;;;;;7.70;1.02;;;7.40;99.90;;;;;;5093402;28;20426;-83
2023/01/08 16:10:05;;;;;;;3.73;0.93;;;7.40;99.90;;;;;;5095813;28;20035;-82
2023/01/08 16:12:31;;;;;;;6.63;1.20;;;7.40;99.90;;;;;;5070919;28;20436;-75
2023/01/08 16:14:57;;;;;;;7.30;1.10;;;7.50;99.90;;;;;;5083582;28;20029;-74
2023/01/08 16:17:23;;;;;;;5.45;1.42;;;7.50;99.90;;;;;;5089712;28;20097;-74
2023/01/08 16:19:49;;;;;;;6.53;1.23;;;7.60;99.90;;;;;;5093267;28;20422;-74
2023/01/08 16:22:15;;;;;;;6.47;1.60;;;7.50;99.90;;;;;;5092912;28;20032;-83
2023/01/08 16:24:42;;;;;;;3.20;0.90;;;7.50;99.90;;;;;;5090469;28;20057;-75
2023/01/08 16:27:08;;;;;;;6.05;1.08;;;7.40;99.90;;;;;;5088564;28;20028;-82
2023/01/08 16:29:34;;;;;;;4.63;1.77;;;7.40;99.90;;;;;;5093513;28;20419;-74
2023/01/08 16:32:00;;;;;;;4.20;1.20;;;7.40;99.90;;;;;;5094832;28;20072;-74
2023/01/08 16:34:26;;;;;;;7.93;1.60;;;7.40;99.90;;;;;;5092898;28;20032;-74
2023/01/08 16:36:52;;;;;;;5.00;1.35;;;7.40;99.90;;;;;;5089256;28;20722;-74
2023/01/08 16:39:18;;;;;;;3.00;0.90;;;7.40;99.90;;;;;;5089871;28;20032;-82
2023/01/08 16:41:46;;;;;;;2.83;0.90;;;7.40;99.90;;;;;;5093450;28;20272;-74
2023/01/08 16:44:21;;;;;;;5.47;0.80;;;7.40;99.90;;;;;;5093033;28;20432;-75
2023/01/08 16:46:47;;;;;;;4.80;1.17;;;7.40;99.90;;;;;;5093696;28;20036;-85
2023/01/08 16:49:14;;;;;;;8.35;1.27;;;7.30;99.90;;;;;;5109778;28;20058;-75
2023/01/08 16:51:40;;;;;;;7.85;1.33;;;7.30;99.90;;;;;;5106475;28;20038;-74
2023/01/08 16:54:06;;;;;;;6.53;1.75;;;7.30;99.90;;;;;;5104112;28;20015;-83
2023/01/08 16:56:32;;;;;;;9.75;1.75;;;7.40;99.90;;;;;;5093771;28;20099;-74
2023/01/08 16:58:58;;;;;;;12.43;2.10;;;7.40;99.90;;;;;;5115914;28;20114;-74
2023/01/08 17:01:24;;;;;;;6.93;5.43;;;7.50;99.90;;;;;;5108793;28;20031;-74
2023/01/08 17:03:50;;;;;;;5.93;1.60;;;7.50;99.90;;;;;;5113870;28;20035;-73
2023/01/08 17:06:16;;;;;;;6.87;1.63;;;7.60;99.90;;;;;;5103223;28;20093;-74
2023/01/08 17:08:42;;;;;;;3.37;1.30;;;7.60;99.90;;;;;;5093138;28;20028;-75
2023/01/08 17:11:17;;;;;;;3.93;1.20;;;7.70;99.90;;;;;;5089264;28;20031;-74
2023/01/08 17:13:43;;;;;;;7.80;3.15;;;7.70;99.90;;;;;;5108814;28;20023;-85
2023/01/08 17:16:11;;;;;;;11.37;3.60;;;7.80;99.90;;;;;;5107581;28;20029;-83
2023/01/08 17:18:37;;;;;;;12.85;8.65;;;7.90;99.90;;;;;;5110742;28;20066;-74
2023/01/08 17:21:05;;;;;;;7.38;3.00;;;8.00;99.90;;;;;;5108784;28;20053;-74
2023/01/08 17:23:31;;;;;;;8.35;4.72;;;8.00;99.90;;;;;;5112920;28;20031;-74
2023/01/08 17:26:02;;;;;;;7.50;2.63;;;8.00;99.90;;;;;;5112054;28;20024;-83
2023/01/08 17:28:28;;;;;;;7.50;1.58;;;8.10;99.90;;;;;;5102293;28;20081;-74
2023/01/08 17:31:02;;;;;;;3.80;1.63;;;8.20;99.90;;;;;;5086597;28;20022;-75
2023/01/08 17:33:28;;;;;;;7.85;2.05;;;8.20;99.90;;;;;;5098355;28;20089;-74
2023/01/08 17:35:53;;;;;;;4.77;1.27;;;8.30;99.90;;;;;;5114035;28;20320;-74
2023/01/08 17:38:19;;;;;;;3.88;1.25;;;8.30;99.90;;;;;;5108001;28;20036;-74
2023/01/08 17:40:44;;;;;;;4.77;1.37;;;8.30;99.90;;;;;;5102855;28;20023;-74
2023/01/08 17:43:10;;;;;;;7.47;1.37;;;8.30;99.90;;;;;;5106182;28;20035;-75
2023/01/08 17:45:39;;;;;;;3.75;1.42;;;8.30;99.90;;;;;;5112777;28;20321;-74
2023/01/08 17:48:05;;;;;;;18.83;7.75;;;8.30;99.90;;;;;;5100946;28;20521;-82
2023/01/08 17:50:31;;;;;;;13.40;7.20;;;8.30;99.90;;;;;;5104170;28;20118;-75
2023/01/08 17:52:57;;;;;;;10.40;5.87;;;8.30;99.90;;;;;;5093320;28;20114;-78
2023/01/08 17:55:26;;;;;;;5.93;3.72;;;8.40;99.90;;;;;;5112296;28;20291;-74
2023/01/08 17:57:52;;;;;;;26.83;14.38;;;8.30;99.90;;;;;;5075943;28;20043;-74
2023/01/08 18:00:18;;;;;;;22.03;13.10;;;8.40;99.90;;;;;;5110573;28;20023;-74
2023/01/08 18:02:44;;;;;;;4.88;3.10;;;8.40;99.90;;;;;;5113508;28;20032;-74
2023/01/08 18:05:10;;;;;;;6.30;4.47;;;8.40;99.90;;;;;;5110534;28;20028;-75
2023/01/08 18:07:35;;;;;;;9.90;3.33;;;8.40;99.90;;;;;;5112950;28;20020;-74
2023/01/08 18:10:03;;;;;;;31.37;14.53;;;8.40;99.90;;;;;;5102134;28;20035;-74
2023/01/08 18:12:28;;;;;;;58.55;24.60;;;8.40;99.90;;;;;;5102648;28;20043;-74
2023/01/08 18:14:54;;;;;;;7.90;3.00;;;8.30;99.90;;;;;;5114456;28;20414;-74
2023/01/08 18:17:20;;;;;;;5.47;2.30;;;8.30;99.90;;;;;;5096084;28;20414;-75
2023/01/08 18:19:47;;;;;;;5.80;1.80;;;8.30;99.90;;;;;;5095290;28;20019;-74
2023/01/08 18:22:14;;;;;;;5.05;1.85;;;8.30;99.90;;;;;;5106309;28;20028;-75
2023/01/08 18:24:40;;;;;;;3.63;2.95;;;8.20;99.90;;;;;;5111255;28;20035;-74
2023/01/08 18:27:06;;;;;;;8.27;1.88;;;8.20;99.90;;;;;;5108227;28;20141;-83
2023/01/08 18:29:32;;;;;;;6.93;2.83;;;8.20;99.90;;;;;;5114822;28;20302;-74
2023/01/08 18:31:58;;;;;;;7.80;3.05;;;8.20;99.90;;;;;;5095255;28;20252;-73
2023/01/08 18:34:24;;;;;;;6.55;1.58;;;8.30;99.90;;;;;;5098058;28;20030;-74
2023/01/08 18:36:50;;;;;;;4.22;2.33;;;8.20;99.90;;;;;;5114699;28;20034;-74
2023/01/08 18:39:16;;;;;;;8.17;3.07;;;8.20;99.90;;;;;;5113779;28;20031;-74
2023/01/08 18:44:26;;;;;;;2.72;1.63;;;8.10;99.90;;;;;;5108502;28;20523;-74
2023/01/08 18:46:52;;;;;;;7.63;2.40;;;8.00;99.90;;;;;;5077953;28;20047;-73
2023/01/08 18:49:20;;;;;;;3.45;1.88;;;8.00;99.90;;;;;;5092235;28;20130;-75
2023/01/08 18:51:46;;;;;;;12.13;3.25;;;7.90;99.90;;;;;;5112603;28;20406;-73
2023/01/08 18:54:11;;;;;;;17.50;11.90;;;7.80;99.90;;;;;;5114093;28;20024;-75
2023/01/08 18:56:37;;;;;;;17.47;9.33;;;7.80;99.90;;;;;;5114171;28;20066;-73
2023/01/08 18:59:05;;;;;;;11.20;8.13;;;7.80;99.90;;;;;;5109568;28;20114;-74
2023/01/08 19:01:31;;;;;;;;;;;7.70;99.90;;;;;;5109349;28;20267;-74
2023/01/08 19:03:57;;;;;;;;;;;7.70;99.90;;;;;;5089396;28;19911;-82
2023/01/08 19:06:23;;;;;;;8.07;2.97;;;7.70;99.90;;;;;;5111233;28;19934;-74
2023/01/08 19:08:49;;;;;;;8.30;2.28;;;7.70;99.90;;;;;;5107208;28;20059;-84
2023/01/08 19:11:15;;;;;;;4.70;1.80;;;7.70;99.90;;;;;;5113438;28;20051;-73
2023/01/08 19:13:42;;;;;;;5.73;1.67;;;7.60;99.90;;;;;;5112714;28;20059;-74
2023/01/08 19:16:08;;;;;;;;;;;7.60;99.90;;;;;;5113148;28;20049;-74
2023/01/08 19:18:34;;;;;;;;;;;7.60;99.90;;;;;;5114818;28;19908;-74
2023/01/08 19:21:00;;;;;;;10.50;6.60;;;7.60;99.90;;;;;;5106894;28;20772;-78
2023/01/08 19:23:26;;;;;;;15.63;10.77;;;7.70;99.90;;;;;;5111346;28;20024;-74
2023/01/08 19:25:53;;;;;;;13.82;6.72;;;7.70;99.90;;;;;;5108113;28;20444;-74
2023/01/08 19:28:19;;;;;;;11.18;4.68;;;7.70;99.90;;;;;;5106840;28;20039;-73
2023/01/08 19:30:56;;;;;;;3.83;2.43;;;7.70;99.90;;;;;;5112803;28;20034;-72
2023/01/08 19:33:22;;;;;;;10.38;4.22;;;7.80;99.90;;;;;;5113069;28;20100;-74
2023/01/08 19:35:49;;;;;;;13.70;6.45;;;7.70;99.90;;;;;;5097495;28;20421;-74
2023/01/08 19:38:16;;;;;;;14.10;6.93;;;7.70;99.90;;;;;;5117632;28;20104;-74
2023/01/08 19:40:42;;;;;;;10.25;5.55;;;7.70;99.90;;;;;;5092503;28;20031;-74
2023/01/08 19:45:53;;;;;;;5.72;2.85;;;7.80;99.90;;;;;;5105138;28;20022;-75
2023/01/08 19:48:19;;;;;;;8.13;3.53;;;7.80;99.90;;;;;;5097169;28;20055;-74
2023/01/08 19:50:47;;;;;;;8.82;4.47;;;7.80;99.90;;;;;;5096769;28;20157;-73
2023/01/08 19:53:13;;;;;;;10.65;4.03;;;7.80;99.90;;;;;;5097970;28;20088;-74
2023/01/08 19:55:38;;;;;;;14.57;5.00;;;7.90;99.90;;;;;;5096636;28;20403;-73
2023/01/08 19:58:04;;;;;;;10.10;4.43;;;7.90;99.90;;;;;;5116033;28;20023;-84
2023/01/08 20:00:35;;;;;;;18.38;10.20;;;7.90;99.90;;;;;;5116795;28;20437;-74
2023/01/08 20:03:02;;;;;;;6.03;2.97;;;7.80;99.90;;;;;;5098347;28;20356;-73
2023/01/08 20:05:28;;;;;;;10.07;3.65;;;7.80;99.90;;;;;;5114546;28;20433;-84
2023/01/08 20:07:53;;;;;;;7.78;5.35;;;7.80;99.90;;;;;;5115786;28;20035;-74
2023/01/08 20:10:19;;;;;;;32.40;16.63;;;7.80;99.90;;;;;;5114263;28;20041;-74
2023/01/08 20:12:45;;;;;;;6.53;4.23;;;7.90;99.90;;;;;;5111579;28;20421;-74
2023/01/08 20:15:10;;;;;;;11.85;4.22;;;7.90;99.90;;;;;;5114934;28;20036;-76
2023/01/08 20:17:39;;;;;;;7.57;3.97;;;8.00;99.90;;;;;;5098129;28;20053;-74
2023/01/08 20:20:05;;;;;;;7.90;2.67;;;8.00;99.90;;;;;;5116059;28;20027;-82
2023/01/08 20:22:30;;;;;;;10.43;5.18;;;8.00;99.90;;;;;;5095103;28;20409;-82
2023/01/08 20:24:56;;;;;;;9.43;3.88;;;8.00;99.90;;;;;;5107612;28;20089;-73
2023/01/08 20:27:22;;;;;;;9.68;5.30;;;8.00;99.90;;;;;;5106604;28;20123;-74
2023/01/08 20:29:47;;;;;;;7.17;2.40;;;8.10;99.90;;;;;;5109436;28;20103;-74
2023/01/08 20:32:13;;;;;;;7.03;2.20;;;8.10;99.90;;;;;;5108533;28;20061;-73
2023/01/08 20:34:39;;;;;;;4.27;1.30;;;8.10;99.90;;;;;;5105416;28;20044;-74
2023/01/08 20:37:06;;;;;;;5.97;1.50;;;8.10;99.90;;;;;;5084737;28;20028;-84
2023/01/08 20:39:31;;;;;;;9.98;1.80;;;8.10;99.90;;;;;;5108580;28;20034;-73
2023/01/08 20:41:57;;;;;;;3.45;2.10;;;8.00;99.90;;;;;;5112980;28;20023;-73
2023/01/08 20:44:23;;;;;;;5.03;1.60;;;8.00;99.90;;;;;;5094693;28;20023;-73
2023/01/08 20:46:49;;;;;;;10.10;1.80;;;7.90;99.90;;;;;;5098572;28;20111;-73
2023/01/08 20:49:14;;;;;;;11.30;2.13;;;7.80;99.90;;;;;;5115302;28;20051;-74
2023/01/08 20:51:42;;;;;;;3.47;1.20;;;7.80;99.90;;;;;;5114624;28;20102;-74
2023/01/08 20:54:12;;;;;;;3.90;1.70;;;7.80;99.90;;;;;;5116746;28;20031;-83
2023/01/08 20:56:37;;;;;;;10.75;2.10;;;7.80;99.90;;;;;;5110709;28;20486;-74
2023/01/08 20:59:03;;;;;;;4.40;1.53;;;7.70;99.90;;;;;;5116911;28;20024;-74
2023/01/08 21:01:32;;;;;;;6.45;1.40;;;7.70;99.90;;;;;;5111392;28;20425;-73
2023/01/08 21:03:59;;;;;;;4.47;1.17;;;7.70;99.90;;;;;;5116670;28;20035;-74
2023/01/08 21:06:27;;;;;;;7.45;2.05;;;7.60;99.90;;;;;;5111000;28;20396;-74
2023/01/08 21:08:55;;;;;;;7.15;1.80;;;7.60;99.90;;;;;;5106692;28;20106;-74
2023/01/08 21:11:22;;;;;;;3.45;2.22;;;7.60;99.90;;;;;;5093281;28;20027;-73
2023/01/08 21:13:47;;;;;;;;;;;7.60;99.90;;;;;;5115321;28;20023;-74
2023/01/08 21:16:16;;;;;;;4.23;1.20;;;7.60;99.90;;;;;;5093093;28;19908;-73
2023/01/08 21:18:47;;;;;;;6.68;1.67;;;7.60;99.90;;;;;;5115621;28;20049;-74
2023/01/08 21:21:17;;;;;;;3.97;1.20;;;7.60;99.90;;;;;;5113150;28;20038;-73
2023/01/08 21:23:43;;;;;;;8.88;1.48;;;7.60;99.90;;;;;;5113335;28;20027;-73
2023/01/08 21:26:10;;;;;;;8.05;1.10;;;7.60;99.90;;;;;;5102498;28;20405;-84
2023/01/08 21:28:36;;;;;;;;;;;7.60;99.90;;;;;;5112403;28;20055;-83
2023/01/08 21:31:06;;;;;;;5.18;1.35;;;7.70;99.90;;;;;;5112656;28;19950;-74
2023/01/08 21:33:32;;;;;;;6.30;2.00;;;7.70;99.90;;;;;;5115671;28;20056;-74
2023/01/08 21:36:02;;;;;;;5.07;1.10;;;7.70;99.90;;;;;;5111329;28;20110;-73
2023/01/08 21:38:31;;;;;;;5.82;1.27;;;7.80;99.90;;;;;;5111704;28;20402;-74
2023/01/08 21:41:01;;;;;;;4.40;1.20;;;7.80;99.90;;;;;;5108463;28;20042;-74
2023/01/08 21:46:12;;;;;;;4.93;1.60;;;7.80;99.90;;;;;;5108429;28;20058;-74
2023/01/08 21:48:38;;;;;;;4.88;1.20;;;7.80;99.90;;;;;;5102818;28;20050;-73
2023/01/08 21:51:04;;;;;;;4.33;0.93;;;7.80;99.90;;;;;;5107460;28;20027;-81
2023/01/08 21:53:30;;;;;;;5.00;1.70;;;7.80;99.90;;;;;;5091029;28;20023;-74
2023/01/08 21:56:03;;;;;;;4.20;1.27;;;7.90;99.90;;;;;;5107222;28;20023;-73
2023/01/08 21:58:30;;;;;;;7.75;1.80;;;7.90;99.90;;;;;;5102082;28;20019;-79
2023/01/08 22:00:57;;;;;;;8.02;1.10;;;7.90;99.90;;;;;;5105275;28;20505;-79
2023/01/08 22:03:23;;;;;;;;;;;7.90;99.90;;;;;;5106690;28;20035;-73
2023/01/08 22:06:00;;;;;;;7.72;0.93;;;7.90;99.90;;;;;;5107009;28;19969;-73
2023/01/08 22:08:28;;;;;;;4.70;1.23;;;7.80;99.90;;;;;;5110174;28;20303;-73
2023/01/08 22:10:54;;;;;;;7.05;0.93;;;7.80;99.90;;;;;;5106784;28;20329;-73
2023/01/08 22:13:19;;;;;;;2.90;1.10;;;7.80;99.90;;;;;;5106747;28;20047;-74
2023/01/08 22:15:45;;;;;;;5.55;1.95;;;7.80;99.90;;;;;;5107458;28;20401;-73
2023/01/08 22:18:11;;;;;;;2.17;1.10;;;7.80;99.90;;;;;;5106486;28;20035;-72
2023/01/08 22:20:36;;;;;;;5.40;1.17;;;7.80;99.90;;;;;;5093114;28;20036;-73
2023/01/08 22:23:02;;;;;;;5.83;1.57;;;7.70;99.90;;;;;;5096332;28;20122;-80
2023/01/08 22:25:28;;;;;;;1.97;0.93;;;7.70;99.90;;;;;;5110547;28;20322;-73
2023/01/08 22:27:55;;;;;;;3.75;1.10;;;7.70;99.90;;;;;;5092743;28;20630;-73
2023/01/08 22:30:21;;;;;;;1.77;1.33;;;7.60;99.90;;;;;;5106127;28;20034;-73
2023/01/08 22:32:46;;;;;;;4.75;1.40;;;7.60;99.90;;;;;;5106788;28;20496;-73
2023/01/08 22:35:12;;;;;;;6.17;1.20;;;7.60;99.90;;;;;;5107594;28;20088;-74
2023/01/08 22:37:39;;;;;;;5.47;2.17;;;7.60;99.90;;;;;;5113214;28;20055;-74
2023/01/08 22:40:05;;;;;;;8.95;1.35;;;7.60;99.90;;;;;;5105746;28;20024;-80
2023/01/08 22:42:31;;;;;;;3.42;1.48;;;7.60;99.90;;;;;;5113433;28;20069;-73
2023/01/08 22:44:57;;;;;;;5.83;1.83;;;7.50;99.90;;;;;;5110274;28;20031;-73
2023/01/08 22:47:22;;;;;;;4.03;1.90;;;7.50;99.90;;;;;;5113425;28;20054;-74
2023/01/08 22:49:48;;;;;;;7.90;2.13;;;7.50;99.90;;;;;;5107720;28;20028;-81
2023/01/08 22:52:14;;;;;;;2.97;1.43;;;7.50;99.90;;;;;;5112064;28;20028;-74
2023/01/08 22:54:40;;;;;;;3.33;1.60;;;7.40;99.90;;;;;;5108614;28;20425;-74
2023/01/08 22:57:07;;;;;;;3.57;1.40;;;7.40;99.90;;;;;;5090358;28;20047;-81
2023/01/08 22:59:33;;;;;;;6.97;2.55;;;7.40;99.90;;;;;;5111819;28;20031;-73
2023/01/08 23:01:58;;;;;;;2.47;1.55;;;7.40;99.90;;;;;;5111318;28;20665;-74
2023/01/08 23:04:24;;;;;;;6.43;1.40;;;7.40;99.90;;;;;;5094062;28;20056;-74
2023/01/08 23:06:50;;;;;;;6.47;1.58;;;7.40;99.90;;;;;;5111100;28;20023;-74
2023/01/08 23:09:15;;;;;;;7.70;1.50;;;7.30;99.90;;;;;;5095748;28;20053;-74
2023/01/08 23:11:41;;;;;;;2.13;1.30;;;7.30;99.90;;;;;;5099515;28;20131;-73
2023/01/08 23:14:11;;;;;;;6.90;1.88;;;7.30;99.90;;;;;;5098216;28;20104;-80
2023/01/08 23:16:37;;;;;;;4.05;1.30;;;7.30;99.90;;;;;;5098522;28;20054;-73
2023/01/08 23:19:02;;;;;;;5.90;1.40;;;7.30;99.90;;;;;;5112695;28;20429;-74
2023/01/08 23:21:28;;;;;;;4.70;1.30;;;7.20;99.90;;;;;;5117179;28;20035;-74
2023/01/08 23:23:54;;;;;;;5.85;1.38;;;7.20;99.90;;;;;;5117362;28;20406;-74
2023/01/08 23:26:23;;;;;;;8.43;1.50;;;7.20;99.90;;;;;;5116594;28;20329;-74
2023/01/08 23:28:49;;;;;;;2.78;1.10;;;7.10;99.90;;;;;;5117764;28;20113;-74
2023/01/08 23:31:18;;;;;;;7.05;1.38;;;7.10;99.90;;;;;;5099683;28;20112;-73
2023/01/08 23:33:44;;;;;;;3.90;1.15;;;7.00;99.90;;;;;;5118122;28;20085;-74
2023/01/08 23:36:11;;;;;;;4.47;1.13;;;7.00;99.90;;;;;;5099614;28;20055;-80
2023/01/08 23:38:36;;;;;;;;;;;7.00;99.90;;;;;;5118319;28;20034;-74
2023/01/08 23:41:05;;;;;;;2.53;0.80;;;7.00;99.90;;;;;;5099751;28;19911;-73
2023/01/08 23:43:31;;;;;;;0.70;0.70;;;7.00;99.90;;;;;;5117821;28;20433;-76
2023/01/08 23:46:02;;;;;;;1.23;1.03;;;6.90;99.90;;;;;;5117799;28;20061;-73
2023/01/08 23:48:28;;;;;;;0.68;0.63;;;6.90;99.90;;;;;;5117440;28;20052;-73
2023/01/08 23:50:53;;;;;;;6.40;0.90;;;6.90;99.90;;;;;;5113989;28;20023;-73
2023/01/08 23:53:19;;;;;;;5.10;1.00;;;6.90;99.90;;;;;;5117770;28;20103;-74
2023/01/08 23:55:44;;;;;;;3.63;1.00;;;6.90;99.90;;;;;;5117622;28;20027;-73
2023/01/08 23:58:10;;;;;;;4.97;1.15;;;6.90;99.90;;;;;;5113286;28;20019;-75
